• Join FlightAware (Why Join?)
  • Login
  • US Flag 
09:53AM EDT


 

Airport Tracker/Info


-or-


 

Live Flight TrackerFlight Track Log ✈ N304LG ✈ 23-Nov-2013 ✈ KSAT - MGGT / GUA

Flight Track Log - Related Links

Times and Time Zones

All times are in EST time to prevent confusion due to time zone crossing. See the N304LG flight status page for this flight to view local times or setup timezone preferences in your user account.

Time Position Orientation Groundspeed Altitude Reporting Facility
EST Latitude Longitude Course Direction KTS MPH feet Rate Location/Type
08:12AM 29.5464 -98.4922 265° West 125 144 1,200  Level Houston Center
08:13AM 29.5444 -98.5189 265° West 140 161 1,900 840 Climbing Houston Center
08:14AM 29.5203 -98.5531 231° Southwest 180 207 2,600 780 Climbing Houston Center
08:15AM 29.4792 -98.5381 162° South 163 188 3,500 780 Climbing Houston Center
08:16AM 29.4414 -98.5169 154° Southeast 146 168 4,200 840 Climbing Houston Center
08:17AM 29.4100 -98.4942 148° Southeast 140 161 5,300 1,080 Climbing Houston Center
08:17AM 29.4097 -98.4936 120° Southeast 143 165 5,300 780 Level Houston Center
08:18AM 29.3719 -98.4700 151° Southeast 144 166 6,100 780 Climbing Houston Center
08:18AM 29.3725 -98.4694 41° Northeast 144 166 6,100 840 Level Houston Center
08:19AM 29.3339 -98.4458 152° Southeast 154 177 7,000 900 Climbing Houston Center
08:20AM 29.2958 -98.4247 154° Southeast 152 175 8,000 840 Climbing Houston Center
08:21AM 29.2583 -98.4089 160° South 146 168 8,800 840 Climbing Houston Center
08:22AM 29.2183 -98.3908 158° South 153 176 9,700 840 Climbing Houston Center
08:23AM 29.1775 -98.3717 158° South 149 171 10,600 780 Climbing Houston Center
08:24AM 29.1358 -98.3575 163° South 156 180 11,300 720 Climbing Houston Center
08:25AM 29.0914 -98.3461 167° South 162 186 12,100 780 Climbing Houston Center
08:26AM 29.0467 -98.3347 167° South 163 188 12,900 780 Climbing Houston Center
08:27AM 28.9981 -98.3247 170° South 164 189 13,700 720 Climbing Houston Center
08:28AM 28.9533 -98.3094 163° South 167 192 14,400 720 Climbing Houston Center
08:29AM 28.9081 -98.2992 169° South 166 191 15,200 780 Climbing Houston Center
08:30AM 28.8633 -98.2886 168° South 164 189 16,100 780 Climbing Houston Center
08:31AM 28.8228 -98.2750 164° South 153 176 16,900 780 Climbing Houston Center
08:32AM 28.7792 -98.2656 169° South 148 170 17,700 480 Climbing Houston Center
08:33AM 28.7375 -98.2544 167° South 153 176 17,900 360 Climbing Houston Center
08:34AM 28.7025 -98.2439 165° South 150 173 18,500 660 Climbing Houston Center
08:35AM 28.6542 -98.2314 167° South 152 175 19,300 660 Climbing Houston Center
08:36AM 28.6144 -98.2206 167° South 148 170 19,900 600 Climbing Houston Center
08:37AM 28.5736 -98.2114 169° South 149 171 20,600 600 Climbing Houston Center
08:38AM 28.5342 -98.2006 166° South 147 169 21,200 540 Climbing Houston Center
08:39AM 28.4917 -98.1917 170° South 148 170 21,800 360 Climbing Houston Center
08:40AM 28.4486 -98.1833 170° South 155 178 22,000 60 Climbing Houston Center
08:41AM 28.3981 -98.1700 167° South 182 209 22,000  Level Houston Center
08:42AM 28.3436 -98.1528 164° South 198 228 22,000  Level Houston Center
08:43AM 28.2881 -98.1422 171° South 203 234 22,000  Level Houston Center
08:44AM 28.2294 -98.1267 167° South 211 243 22,000  Level Houston Center
08:45AM 28.1625 -98.1089 167° South 214 246 22,000  Level Houston Center
08:46AM 28.1044 -98.0964 169° South 213 245 22,000  Level Houston Center
08:47AM 28.0469 -98.0817 167° South 212 244 22,000  Level Houston Center
08:48AM 27.9850 -98.0650 167° South 214 246 22,000  Level Houston Center
08:49AM 27.9256 -98.0517 169° South 216 249 22,000  Level Houston Center
08:50AM 27.8678 -98.0372 168° South 213 245 22,000  Level Houston Center
08:51AM 27.8094 -98.0206 166° South 214 246 22,000  Level Houston Center
08:52AM 27.7497 -98.0081 170° South 217 250 22,000  Level Houston Center
08:53AM 27.6919 -97.9933 167° South 213 245 22,000  Level Houston Center
08:54AM 27.6339 -97.9772 166° South 216 249 22,000  Level Houston Center
08:55AM 27.5672 -97.9639 170° South 215 247 22,000  Level Houston Center
08:56AM 27.5083 -97.9494 168° South 215 247 22,000  Level Houston Center
08:57AM 27.4486 -97.9314 165° South 222 255 22,000  Level Houston Center
08:58AM 27.3831 -97.9169 169° South 221 254 22,000  Level Houston Center
09:00AM 27.3231 -97.9006 166° South 217 250 22,000  Level Houston Center
09:01AM 27.2625 -97.8864 168° South 216 249 22,000  Level Houston Center
09:02AM 27.2033 -97.8711 167° South 220 253 22,000  Level Houston Center
09:03AM 27.1417 -97.8561 168° South 221 254 22,000  Level Houston Center
09:04AM 27.0811 -97.8406 167° South 216 249 22,000  Level Houston Center
09:05AM 27.0192 -97.8253 168° South 219 252 22,000  Level Houston Center
09:06AM 26.9600 -97.8108 168° South 219 252 22,000  Level Houston Center
09:07AM 26.9008 -97.7939 166° South 216 249 22,000  Level Houston Center
09:08AM 26.8381 -97.7806 169° South 215 247 22,000  Level Houston Center
09:09AM 26.7786 -97.7658 168° South 218 251 22,000  Level Houston Center
09:10AM 26.7186 -97.7503 167° South 221 254 22,000  Level Houston Center
09:11AM 26.6542 -97.7356 168° South 220 253 22,000  Level Houston Center
09:12AM 26.5947 -97.7206 167° South 219 252 22,000  Level Houston Center
09:13AM 26.5339 -97.7064 168° South 222 255 22,000  Level Houston Center
09:14AM 26.4739 -97.6908 167° South 221 254 22,000  Level Houston Center
09:15AM 26.4086 -97.6753 168° South 221 254 22,000  Level Houston Center
09:16AM 26.3481 -97.6597 167° South 221 254 22,000  Level Houston Center
09:17AM 26.2875 -97.6456 168° South 220 253 22,000  Level Houston Center
09:18AM 26.2264 -97.6347 171° South 221 254 22,000  Level Houston Center
09:19AM 26.1647 -97.6189 167° South 225 259 22,000  Level Houston Center
09:20AM 26.0983 -97.6050 169° South 223 257 22,000  Level Houston Center
09:21AM 26.0378 -97.5917 169° South 220 253 22,000  Level Houston Center
09:22AM 25.9778 -97.5778 168° South 219 252 22,000  Level Houston Center
09:23AM 25.9244 -97.5461 152° Southeast 229 264 22,000  Level Houston Center
09:24AM 25.9778 -97.3911 69° East 335 386 22,000  Level Houston Center
09:25AM 25.9367 -97.3447 135° Southeast 220 253 22,000  Level Houston Center
09:26AM 25.7403 -97.5161 218° Southwest 213 245 22,000  Level Houston Center
09:27AM 25.6761 -97.5214 184° South 215 247 22,000  Level Houston Center
09:28AM 25.6108 -97.5406 195° South 266 306 22,000  Level Houston Center
09:30AM 25.5302 -97.5421 186° South  Level FlightAware Approximate
09:37AM 25.1050 -97.5952 186° South  Level FlightAware Approximate
09:38AM 25.0441 -97.6022 185° South  Level FlightAware Approximate
09:39AM 24.9832 -97.6080 185° South  Level FlightAware Approximate
09:40AM 24.9223 -97.6139 185° South  Level FlightAware Approximate
09:41AM 24.8615 -97.6197 185° South  Level FlightAware Approximate
09:42AM 24.8006 -97.6256 185° South  Level FlightAware Approximate
09:43AM 24.7397 -97.6314 185° South  Level FlightAware Approximate
09:44AM 24.6787 -97.6372 185° South  Level FlightAware Approximate
09:45AM 24.6178 -97.6431 185° South  Level FlightAware Approximate
09:46AM 24.5569 -97.6489 185° South  Level FlightAware Approximate
09:47AM 24.4960 -97.6547 185° South  Level FlightAware Approximate
09:48AM 24.4351 -97.6605 185° South  Level FlightAware Approximate
09:49AM 24.3742 -97.6663 185° South  Level FlightAware Approximate
09:50AM 24.3133 -97.6721 185° South  Level FlightAware Approximate
09:51AM 24.2524 -97.6779 185° South  Level FlightAware Approximate
09:52AM 24.1915 -97.6837 185° South  Level FlightAware Approximate
09:53AM 24.1306 -97.6895 185° South  Level FlightAware Approximate
09:54AM 24.0697 -97.6953 185° South  Level FlightAware Approximate
09:55AM 24.0088 -97.7010 185° South  Level FlightAware Approximate
09:56AM 23.9478 -97.7068 185° South  Level FlightAware Approximate
09:57AM 23.8869 -97.7125 185° South  Level FlightAware Approximate
09:58AM 23.8260 -97.7183 185° South  Level FlightAware Approximate
09:59AM 23.7651 -97.7241 185° South  Level FlightAware Approximate
10:00AM 23.7042 -97.7298 185° South  Level FlightAware Approximate
10:01AM 23.6433 -97.7350 184° South  Level FlightAware Approximate
10:02AM 23.5823 -97.7394 184° South  Level FlightAware Approximate
10:03AM 23.5213 -97.7437 184° South  Level FlightAware Approximate
10:04AM 23.4603 -97.7481 184° South  Level FlightAware Approximate
10:05AM 23.3993 -97.7525 184° South  Level FlightAware Approximate
10:06AM 23.3383 -97.7568 184° South  Level FlightAware Approximate
10:07AM 23.2773 -97.7612 184° South  Level FlightAware Approximate
10:08AM 23.2163 -97.7655 184° South  Level FlightAware Approximate
10:09AM 23.1553 -97.7684 188° South  Level FlightAware Approximate
10:10AM 23.0947 -97.7777 188° South  Level FlightAware Approximate
10:11AM 23.0342 -97.7871 188° South  Level FlightAware Approximate
10:12AM 22.9737 -97.7964 188° South  Level FlightAware Approximate
10:13AM 22.9129 -97.8028 184° South  Level FlightAware Approximate
10:14AM 22.8519 -97.8074 184° South  Level FlightAware Approximate
10:15AM 22.7909 -97.8120 184° South  Level FlightAware Approximate
10:16AM 22.7299 -97.8166 184° South  Level FlightAware Approximate
10:17AM 22.6689 -97.8211 184° South  Level FlightAware Approximate
10:18AM 22.6079 -97.8257 184° South  Level FlightAware Approximate
10:19AM 22.5469 -97.8303 184° South  Level FlightAware Approximate
10:20AM 22.4859 -97.8349 184° South  Level FlightAware Approximate
10:21AM 22.4249 -97.8394 184° South  Level FlightAware Approximate
10:22AM 22.3640 -97.8440 184° South  Level FlightAware Approximate
10:23AM 22.3030 -97.8485 184° South  Level FlightAware Approximate
10:24AM 22.2462 -97.8302 154° Southeast  Level FlightAware Approximate
10:25AM 22.1914 -97.8010 154° Southeast  Level FlightAware Approximate
10:26AM 22.1365 -97.7718 154° Southeast  Level FlightAware Approximate
10:27AM 22.0817 -97.7426 154° Southeast  Level FlightAware Approximate
10:28AM 22.0268 -97.7134 154° Southeast  Level FlightAware Approximate
10:29AM 21.9720 -97.6843 154° Southeast  Level FlightAware Approximate
10:30AM 21.9171 -97.6552 154° Southeast  Level FlightAware Approximate
10:31AM 21.8623 -97.6261 154° Southeast  Level FlightAware Approximate
10:32AM 21.8074 -97.5971 154° Southeast  Level FlightAware Approximate
10:33AM 21.7526 -97.5680 154° Southeast  Level FlightAware Approximate
10:34AM 21.6977 -97.5390 154° Southeast  Level FlightAware Approximate
10:35AM 21.6428 -97.5100 154° Southeast  Level FlightAware Approximate
10:36AM 21.5879 -97.4811 154° Southeast  Level FlightAware Approximate
10:37AM 21.5330 -97.4521 154° Southeast  Level FlightAware Approximate
10:38AM 21.4781 -97.4232 154° Southeast  Level FlightAware Approximate
10:39AM 21.4232 -97.3943 154° Southeast  Level FlightAware Approximate
10:40AM 21.3683 -97.3654 154° Southeast  Level FlightAware Approximate
10:41AM 21.3134 -97.3365 154° Southeast  Level FlightAware Approximate
10:42AM 21.2585 -97.3077 154° Southeast  Level FlightAware Approximate
10:43AM 21.2036 -97.2789 154° Southeast  Level FlightAware Approximate
10:44AM 21.1487 -97.2501 154° Southeast  Level FlightAware Approximate
10:45AM 21.0938 -97.2213 154° Southeast  Level FlightAware Approximate
10:46AM 21.0388 -97.1925 154° Southeast  Level FlightAware Approximate
10:47AM 20.9839 -97.1638 154° Southeast  Level FlightAware Approximate
10:48AM 20.9289 -97.1351 154° Southeast  Level FlightAware Approximate
10:49AM 20.8740 -97.1064 154° Southeast  Level FlightAware Approximate
10:50AM 20.8190 -97.0777 154° Southeast  Level FlightAware Approximate
10:51AM 20.7641 -97.0491 154° Southeast  Level FlightAware Approximate
10:52AM 20.7091 -97.0204 154° Southeast  Level FlightAware Approximate
10:53AM 20.6542 -96.9918 154° Southeast  Level FlightAware Approximate
10:54AM 20.5992 -96.9632 154° Southeast  Level FlightAware Approximate
10:55AM 20.5442 -96.9347 154° Southeast  Level FlightAware Approximate
10:56AM 20.4893 -96.9061 154° Southeast  Level FlightAware Approximate
10:57AM 20.4343 -96.8776 154° Southeast  Level FlightAware Approximate
10:58AM 20.3793 -96.8491 154° Southeast  Level FlightAware Approximate
10:59AM 20.3243 -96.8206 154° Southeast  Level FlightAware Approximate
11:00AM 20.2678 -96.7957 158° South  Level FlightAware Approximate
11:01AM 20.2111 -96.7714 158° South  Level FlightAware Approximate
11:02AM 20.1563 -96.7426 153° Southeast  Level FlightAware Approximate
11:03AM 20.1020 -96.7127 153° Southeast  Level FlightAware Approximate
11:04AM 20.0477 -96.6828 153° Southeast  Level FlightAware Approximate
11:05AM 19.9934 -96.6530 153° Southeast  Level FlightAware Approximate
11:06AM 19.9391 -96.6232 153° Southeast  Level FlightAware Approximate
11:07AM 19.8847 -96.5933 153° Southeast  Level FlightAware Approximate
11:08AM 19.8304 -96.5636 153° Southeast  Level FlightAware Approximate
11:09AM 19.7761 -96.5338 153° Southeast  Level FlightAware Approximate
11:10AM 19.7217 -96.5040 153° Southeast  Level FlightAware Approximate
11:11AM 19.6674 -96.4743 153° Southeast  Level FlightAware Approximate
11:12AM 19.6130 -96.4446 153° Southeast  Level FlightAware Approximate
11:13AM 19.5587 -96.4149 153° Southeast  Level FlightAware Approximate
11:14AM 19.5043 -96.3852 153° Southeast  Level FlightAware Approximate
11:15AM 19.4499 -96.3556 153° Southeast  Level FlightAware Approximate
11:16AM 19.3956 -96.3260 153° Southeast  Level FlightAware Approximate
11:17AM 19.3412 -96.2963 153° Southeast  Level FlightAware Approximate
11:18AM 19.2868 -96.2667 153° Southeast  Level FlightAware Approximate
11:19AM 19.2324 -96.2372 153° Southeast  Level FlightAware Approximate
11:20AM 19.1780 -96.2076 153° Southeast  Level FlightAware Approximate
11:21AM 19.1273 -96.1737 124° Southeast  Level FlightAware Approximate
11:22AM 19.0933 -96.1199 124° Southeast  Level FlightAware Approximate
11:23AM 19.0593 -96.0662 124° Southeast  Level FlightAware Approximate
11:24AM 19.0252 -96.0125 124° Southeast  Level FlightAware Approximate
11:25AM 18.9912 -95.9587 124° Southeast  Level FlightAware Approximate
11:26AM 18.9571 -95.9051 124° Southeast  Level FlightAware Approximate
11:27AM 18.9231 -95.8514 124° Southeast  Level FlightAware Approximate
11:28AM 18.8890 -95.7977 124° Southeast  Level FlightAware Approximate
11:29AM 18.8549 -95.7441 124° Southeast  Level FlightAware Approximate
11:30AM 18.8208 -95.6905 124° Southeast  Level FlightAware Approximate
11:31AM 18.7866 -95.6369 124° Southeast  Level FlightAware Approximate
11:32AM 18.7525 -95.5834 124° Southeast  Level FlightAware Approximate
11:33AM 18.7183 -95.5298 124° Southeast  Level FlightAware Approximate
11:34AM 18.6842 -95.4763 124° Southeast  Level FlightAware Approximate
11:35AM 18.6500 -95.4228 124° Southeast  Level FlightAware Approximate
11:36AM 18.6158 -95.3693 124° Southeast  Level FlightAware Approximate
11:37AM 18.5815 -95.3159 124° Southeast  Level FlightAware Approximate
11:38AM 18.5471 -95.2627 128° Southeast  Level FlightAware Approximate
11:39AM 18.5098 -95.2116 128° Southeast  Level FlightAware Approximate
11:40AM 18.4725 -95.1605 128° Southeast  Level FlightAware Approximate
11:41AM 18.4352 -95.1094 128° Southeast  Level FlightAware Approximate
11:42AM 18.3979 -95.0584 128° Southeast  Level FlightAware Approximate
11:43AM 18.3606 -95.0074 128° Southeast  Level FlightAware Approximate
11:44AM 18.3232 -94.9564 128° Southeast  Level FlightAware Approximate
11:45AM 18.2859 -94.9054 128° Southeast  Level FlightAware Approximate
11:46AM 18.2485 -94.8544 128° Southeast  Level FlightAware Approximate
11:47AM 18.2111 -94.8035 128° Southeast  Level FlightAware Approximate
11:48AM 18.1737 -94.7526 128° Southeast  Level FlightAware Approximate
11:49AM 18.1363 -94.7017 128° Southeast  Level FlightAware Approximate
11:50AM 18.0989 -94.6509 128° Southeast  Level FlightAware Approximate
11:51AM 18.0614 -94.6000 128° Southeast  Level FlightAware Approximate
11:52AM 18.0240 -94.5492 128° Southeast  Level FlightAware Approximate
11:53AM 17.9837 -94.5011 138° Southeast  Level FlightAware Approximate
11:54AM 17.9385 -94.4579 138° Southeast  Level FlightAware Approximate
11:55AM 17.8932 -94.4147 138° Southeast  Level FlightAware Approximate
11:56AM 17.8479 -94.3716 138° Southeast  Level FlightAware Approximate
11:57AM 17.8026 -94.3285 138° Southeast  Level FlightAware Approximate
11:58AM 17.7573 -94.2853 138° Southeast  Level FlightAware Approximate
11:59AM 17.7120 -94.2422 138° Southeast  Level FlightAware Approximate
12:00PM 17.6667 -94.1992 138° Southeast  Level FlightAware Approximate
12:01PM 17.6214 -94.1561 138° Southeast  Level FlightAware Approximate
12:02PM 17.5760 -94.1131 138° Southeast  Level FlightAware Approximate
12:03PM 17.5307 -94.0701 138° Southeast  Level FlightAware Approximate
12:04PM 17.4853 -94.0271 138° Southeast  Level FlightAware Approximate
12:05PM 17.4400 -93.9842 138° Southeast  Level FlightAware Approximate
12:06PM 17.3946 -93.9412 138° Southeast  Level FlightAware Approximate
12:07PM 17.3492 -93.8983 138° Southeast  Level FlightAware Approximate
12:08PM 17.3038 -93.8554 138° Southeast  Level FlightAware Approximate
12:09PM 17.2584 -93.8125 138° Southeast  Level FlightAware Approximate
12:10PM 17.2130 -93.7697 138° Southeast  Level FlightAware Approximate
12:11PM 17.1676 -93.7268 138° Southeast  Level FlightAware Approximate
12:12PM 17.1222 -93.6840 138° Southeast  Level FlightAware Approximate
12:13PM 17.0767 -93.6412 138° Southeast  Level FlightAware Approximate
12:14PM 17.0313 -93.5985 138° Southeast  Level FlightAware Approximate
12:15PM 16.9858 -93.5557 138° Southeast  Level FlightAware Approximate
12:16PM 16.9404 -93.5130 138° Southeast  Level FlightAware Approximate
12:17PM 16.8949 -93.4703 138° Southeast  Level FlightAware Approximate
12:18PM 16.8494 -93.4276 138° Southeast  Level FlightAware Approximate
12:19PM 16.8039 -93.3849 138° Southeast  Level FlightAware Approximate
12:20PM 16.7598 -93.3409 128° Southeast  Level FlightAware Approximate
12:21PM 16.7220 -93.2908 128° Southeast  Level FlightAware Approximate
12:22PM 16.6841 -93.2406 128° Southeast  Level FlightAware Approximate
12:23PM 16.6462 -93.1905 128° Southeast  Level FlightAware Approximate
12:24PM 16.6084 -93.1405 128° Southeast  Level FlightAware Approximate
12:25PM 16.5705 -93.0904 128° Southeast  Level FlightAware Approximate
12:26PM 16.5326 -93.0404 128° Southeast  Level FlightAware Approximate
12:27PM 16.4946 -92.9903 128° Southeast  Level FlightAware Approximate
12:28PM 16.4567 -92.9403 128° Southeast  Level FlightAware Approximate
12:29PM 16.4188 -92.8904 128° Southeast  Level FlightAware Approximate
12:30PM 16.3808 -92.8404 128° Southeast  Level FlightAware Approximate
12:31PM 16.3429 -92.7905 128° Southeast  Level FlightAware Approximate
12:32PM 16.3049 -92.7405 128° Southeast  Level FlightAware Approximate
12:33PM 16.2669 -92.6906 128° Southeast  Level FlightAware Approximate
12:34PM 16.2289 -92.6408 128° Southeast  Level FlightAware Approximate
12:35PM 16.1909 -92.5909 128° Southeast  Level FlightAware Approximate
12:36PM 16.1529 -92.5411 128° Southeast  Level FlightAware Approximate
12:37PM 16.1148 -92.4912 128° Southeast  Level FlightAware Approximate
12:38PM 16.0768 -92.4414 128° Southeast  Level FlightAware Approximate
12:39PM 16.0387 -92.3916 128° Southeast  Level FlightAware Approximate
12:40PM 16.0007 -92.3419 129° Southeast  Level FlightAware Approximate
12:41PM 15.9626 -92.2921 129° Southeast  Level FlightAware Approximate
12:42PM 15.9245 -92.2424 129° Southeast  Level FlightAware Approximate
12:43PM 15.8864 -92.1927 129° Southeast  Level FlightAware Approximate
12:44PM 15.8483 -92.1430 129° Southeast  Level FlightAware Approximate
12:45PM 15.8101 -92.0933 129° Southeast  Level FlightAware Approximate
12:46PM 15.7720 -92.0436 129° Southeast  Level FlightAware Approximate
12:47PM 15.7338 -91.9940 129° Southeast  Level FlightAware Approximate
12:48PM 15.6957 -91.9444 129° Southeast  Level FlightAware Approximate
12:49PM 15.6576 -91.8948 129° Southeast  Level FlightAware Approximate
12:50PM 15.6194 -91.8452 129° Southeast  Level FlightAware Approximate
12:51PM 15.5813 -91.7956 129° Southeast  Level FlightAware Approximate
12:52PM 15.5431 -91.7460 129° Southeast  Level FlightAware Approximate
12:53PM 15.5036 -91.6976 131° Southeast  Level FlightAware Approximate
12:54PM 15.4636 -91.6496 131° Southeast  Level FlightAware Approximate
12:55PM 15.4252 -91.6003 128° Southeast  Level FlightAware Approximate
12:56PM 15.3877 -91.5502 128° Southeast  Level FlightAware Approximate
12:57PM 15.3502 -91.5001 128° Southeast  Level FlightAware Approximate
12:58PM 15.3126 -91.4501 128° Southeast  Level FlightAware Approximate
12:59PM 15.2751 -91.4001 128° Southeast  Level FlightAware Approximate
01:00PM 15.2372 -91.3504 129° Southeast  Level FlightAware Approximate
01:01PM 15.1986 -91.3012 129° Southeast  Level FlightAware Approximate
01:02PM 15.1600 -91.2521 129° Southeast  Level FlightAware Approximate
01:03PM 15.1214 -91.2030 129° Southeast  Level FlightAware Approximate
01:04PM 15.0828 -91.1539 129° Southeast  Level FlightAware Approximate
01:05PM 15.0449 -91.1043 128° Southeast  Level FlightAware Approximate
01:06PM 15.0074 -91.0543 128° Southeast  Level FlightAware Approximate
01:07PM 14.9699 -91.0043 128° Southeast  Level FlightAware Approximate
01:08PM 14.9310 -90.9554 130° Southeast  Level FlightAware Approximate
01:09PM 14.8920 -90.9067 130° Southeast  Level FlightAware Approximate
01:10PM 14.8531 -90.8580 130° Southeast  Level FlightAware Approximate
01:11PM 14.8148 -90.8086 128° Southeast  Level FlightAware Approximate
01:12PM 14.7774 -90.7587 128° Southeast  Level FlightAware Approximate
01:13PM 14.7399 -90.7087 128° Southeast  Level FlightAware Approximate
01:14PM 14.6960 -90.6724 128° Southeast  Level FlightAware Approximate
01:15PM 14.6585 -90.6224 128° Southeast  Level FlightAware Approximate
01:16PM 14.6210 -90.5725 128° Southeast  Level FlightAware Approximate
01:17PM 14.5860 -90.5207 125° Southeast  Level FlightAware Approximate
01:18PM 14.5833 -90.5275 180° South  Level Estimated
01:19PM 14.5833 -90.5275 180° South  Level Estimated
01:20PM 14.5833 -90.5275 180° South  Level Estimated
01:21PM 14.5833 -90.5275 180° South  Level Estimated
01:22PM 14.5833 -90.5275 180° South  Level Estimated
01:23PM 14.5833 -90.5275 180° South  Level Estimated
01:24PM 14.5833 -90.5275 180° South  Level Estimated
01:25PM 14.5833 -90.5275 180° South  Level Estimated
01:26PM 14.5833 -90.5275 180° South  Level Estimated